Aeroporto :
LOGIN :

Iscrizione | Disclaimer

   EN    FR    IT 

 










Sommario :    VFR   VFR Marginale   IFR   IFR Intensivo   IFR Molto Intensivo
Visibilità : 
Base nubi : 
>= 8 km
>= 3000ft
5 / 8 km
1000 / 3000 ft
1500m / 5 km
500 / 1000 ft
800 / 1500m
200 / 500 ft
< 800m
< 200 ft
Simboli :   Temporali  Nebbia  Neve Forte  Precipitazioni Forti  Vento > 20 kt
SIGMETs :   Varie  Temporali  Ghiacco  Turbolenza  Onda orograficha  Ceneri Vulcaniche






- Altitudine del aeroporto : 1197 ft
- Codice IATA : SPM


ETAD - Spangdahlem Ab

ULTIMO METAR :
  • 290256Z AUTO 02011KT 9999 BKN027 03/M03 A3018 RMK AO2 BKN V OVC CIG 026 RWY05 SLP214 T00261029 58002 $

METARs OBSOLETI :
  • 290156Z AUTO 01008G17KT 9999 OVC026 03/M03 A3019 RMK AO2 SLP218 T00271032 $
  • 290056Z AUTO 36013G20KT 9999 OVC023 04/M02 A3020 RMK AO2 SLP221 T00351019 $

TAF TAF ETAD
Valido dal 28 a 19 ore il 30 a 01 ore UTC


281900Z 2819/3001 02010G18KT 9999 FEW040 QNH3007INS
BECMG 2820/2821 03009KT 9999 BKN020 OVC070 620703 QNH3015INS
BECMG 2906/2907 01015G25KT 9999 BKN020 620203 QNH3018INS
BECMG 2914/2915 02020G30KT 8000 -RA BKN020 620203 510009 QNH3020INS
BECMG 2920/2921 02010G20KT 9999 NSW SCT025 QNH3036INS TX06/2915Z TN01/2906Z LAST NO AMDS AFT 2819 NEXT 3108



MetMap, La meteo Aeronautica in un colpo d'occhio ! - Copyright ORBIFLY Dicembre 2007 - Disclaimer

ORBIFLY MET'MAP TEAM :

Programmazione e sviluppo : Alexandra Zaïnal
Concezione : Baudouin d'Aumeries
Aiuto per la programmazione : Marc-Olivier Méhu
Supporto tecnico e logistico : Manuel Goepfert
Aiuto per la traduzione : Arnaldo La Scala

Contatto : metmap@orbifly.com




FONTI E CREDITI :

   NOAA